Lake Ariel, Pennsylvania
Current Conditions -  °F | °C
As of 3:54 PM on Sunday 21 Dec 2014 (Local Time) from KAVP Reporting Station
Overcast Overcast  
Wind Chill: 24°   Ceiling: 2500
Heat Index: 31°   Visibility: 10mi
Dew Point: 20°   Wind: 7mph
Humidity: 64%   Direction: 20°NNE
Pressure: 30.27"   Gusts: NA
Location:  41.45°N, 75.38°W
Report Text: KAVP 212054Z AUTO 02006KT 10SM OVC025 M01/M07 A3027 RMK AO2 SLP258 T10061067 56004
Loading
Personal Weather Stations






























Interactive Weather Map New forecast layout! Learn more

10-Day Weather Forecast

Advertisements
Track Severe Weather on mobile